createdAt,value
2022-11-03T00:01:28.233Z,9.68
2022-11-03T00:06:15.182Z,12.63
2022-11-03T00:11:05.674Z,14.13
2022-11-03T00:15:54.158Z,15.65
2022-11-03T00:20:42.102Z,9.43
2022-11-03T00:25:28.359Z,14.10
2022-11-03T00:30:15.490Z,8.23
2022-11-03T00:35:01.486Z,11.27
2022-11-03T00:39:49.840Z,11.18
2022-11-03T00:44:35.767Z,7.88
2022-11-03T00:49:21.633Z,12.18
2022-11-03T00:54:09.279Z,7.70
2022-11-03T00:58:58.663Z,6.45
2022-11-03T01:04:05.895Z,9.25
2022-11-03T01:08:51.542Z,9.77
2022-11-03T01:13:36.908Z,5.60
2022-11-03T01:18:27.234Z,7.85
2022-11-03T01:23:15.782Z,9.20
2022-11-03T01:28:01.951Z,9.02
2022-11-03T01:32:48.321Z,8.98
2022-11-03T01:37:37.351Z,7.15
2022-11-03T01:42:23.158Z,7.95
2022-11-03T01:47:15.917Z,8.48
2022-11-03T01:52:07.948Z,7.78
2022-11-03T01:56:58.065Z,9.35
2022-11-03T02:01:43.976Z,7.25
2022-11-03T02:06:33.305Z,12.73
2022-11-03T02:11:31.138Z,7.78
2022-11-03T02:16:19.962Z,10.45
2022-11-03T02:21:15.323Z,15.63
2022-11-03T02:26:05.353Z,8.02
2022-11-03T02:31:06.497Z,11.90
2022-11-03T02:35:58.350Z,15.60
2022-11-03T02:40:48.818Z,9.57
2022-11-03T02:45:38.157Z,9.98
2022-11-03T02:50:23.976Z,13.00
2022-11-03T02:55:17.838Z,11.45
2022-11-03T03:00:07.811Z,8.73
2022-11-03T03:05:00.742Z,8.32
2022-11-03T03:09:54.907Z,11.98
2022-11-03T03:14:42.582Z,10.50
2022-11-03T03:19:39.748Z,12.00
2022-11-03T03:24:36.758Z,10.05
2022-11-03T03:29:25.911Z,8.70
2022-11-03T03:34:33.763Z,7.65
2022-11-03T03:39:23.050Z,9.30
2022-11-03T03:44:13.081Z,9.65
2022-11-03T03:48:59.535Z,10.77
2022-11-03T03:53:45.930Z,11.95
2022-11-03T03:58:32.034Z,10.75
2022-11-03T04:03:22.302Z,12.32
2022-11-03T04:08:08.963Z,6.68
2022-11-03T04:13:07.528Z,5.72
2022-11-03T04:18:06.366Z,9.80
2022-11-03T04:22:55.002Z,10.65
2022-11-03T04:27:41.511Z,9.13
2022-11-03T04:32:27.236Z,7.78
2022-11-03T04:37:18.509Z,7.47
2022-11-03T04:42:16.026Z,11.52
2022-11-03T04:47:02.175Z,7.03
2022-11-03T04:51:47.888Z,7.70
2022-11-03T04:56:34.091Z,6.15
2022-11-03T05:01:25.117Z,8.40
2022-11-03T05:06:17.171Z,9.43
2022-11-03T05:11:03.440Z,9.75
2022-11-03T05:15:50.222Z,9.88
2022-11-03T05:20:46.801Z,8.55
2022-11-03T05:25:40.595Z,11.43
2022-11-03T05:30:25.840Z,8.30
2022-11-03T05:35:22.153Z,9.30
2022-11-03T05:40:23.287Z,9.20
2022-11-03T05:45:19.109Z,10.07
2022-11-03T05:50:13.277Z,13.27
2022-11-03T05:55:01.595Z,10.77
2022-11-03T05:59:54.869Z,13.73
2022-11-03T06:04:41.265Z,10.57
2022-11-03T06:09:28.570Z,13.00
2022-11-03T06:14:24.059Z,16.60
2022-11-03T06:19:24.163Z,15.05
2022-11-03T06:24:14.414Z,16.15
2022-11-03T06:28:59.572Z,16.40
2022-11-03T06:33:44.846Z,13.75
2022-11-03T06:38:34.609Z,13.43
2022-11-03T06:43:25.783Z,17.58
2022-11-03T06:48:16.215Z,15.20
2022-11-03T06:53:05.211Z,18.27
2022-11-03T06:57:56.523Z,18.83
2022-11-03T07:02:56.571Z,16.38
2022-11-03T07:07:41.839Z,14.63
2022-11-03T07:12:28.701Z,15.73
2022-11-03T07:17:24.296Z,13.68
2022-11-03T07:22:17.784Z,17.20
2022-11-03T07:27:10.650Z,17.33
2022-11-03T07:31:57.338Z,14.60
2022-11-03T07:36:51.233Z,14.38
2022-11-03T07:41:39.351Z,14.10
2022-11-03T07:46:26.241Z,18.35
2022-11-03T07:51:21.751Z,16.05
2022-11-03T07:56:19.144Z,16.30
2022-11-03T08:01:10.990Z,15.18
2022-11-03T08:10:41.031Z,13.82
2022-11-03T08:15:28.991Z,14.48
2022-11-03T08:20:14.999Z,17.88
2022-11-03T08:25:00.516Z,17.20
2022-11-03T08:29:45.547Z,15.85
2022-11-03T08:34:33.459Z,13.80
2022-11-03T08:39:18.471Z,16.17
2022-11-03T08:44:03.712Z,16.70
2022-11-03T08:48:49.531Z,11.48
2022-11-03T08:53:38.662Z,17.00
2022-11-03T08:58:24.162Z,12.77
2022-11-03T09:03:09.475Z,13.18
2022-11-03T09:13:02.541Z,18.02
2022-11-03T09:17:47.536Z,23.48
2022-11-03T09:22:32.806Z,15.98
2022-11-03T09:27:18.178Z,14.95
2022-11-03T09:32:06.353Z,17.88
2022-11-03T09:36:53.360Z,17.50
2022-11-03T09:41:57.795Z,21.20
2022-11-03T09:46:44.615Z,13.50
2022-11-03T09:51:32.458Z,10.73
2022-11-03T09:56:20.158Z,12.85
2022-11-03T10:01:06.244Z,15.23
2022-11-03T10:05:51.904Z,6.60
2022-11-03T10:10:39.978Z,18.23
2022-11-03T10:15:28.348Z,18.25
2022-11-03T10:20:15.320Z,11.48
2022-11-03T10:25:31.113Z,19.25
2022-11-03T10:30:19.042Z,16.27
2022-11-03T10:35:04.027Z,21.90
2022-11-03T10:39:50.118Z,25.05
2022-11-03T10:44:35.175Z,21.17
2022-11-03T10:49:23.351Z,23.63
2022-11-03T10:54:13.102Z,19.70
2022-11-03T11:04:04.613Z,19.00
2022-11-03T11:08:59.801Z,24.77
2022-11-03T11:13:45.472Z,20.85
2022-11-03T11:19:12.741Z,20.77
2022-11-03T11:24:00.675Z,17.58
2022-11-03T11:28:49.059Z,17.90
2022-11-03T11:33:36.158Z,12.57
2022-11-03T11:38:47.647Z,19.83
2022-11-03T11:43:35.529Z,14.18
2022-11-03T11:48:21.351Z,15.07
2022-11-03T11:53:26.134Z,15.35
2022-11-03T11:58:21.707Z,16.67
2022-11-03T12:03:10.128Z,19.42
2022-11-03T12:07:55.631Z,18.83
2022-11-03T12:12:40.617Z,16.95
2022-11-03T12:17:39.460Z,16.83
2022-11-03T12:22:45.781Z,14.15
2022-11-03T12:27:46.751Z,20.10
2022-11-03T12:32:35.076Z,20.77
2022-11-03T12:37:20.499Z,21.83
2022-11-03T12:42:09.288Z,24.23
2022-11-03T12:46:54.359Z,23.10
2022-11-03T12:51:39.647Z,26.65
2022-11-03T12:56:24.655Z,23.60
2022-11-03T13:01:13.107Z,24.75
2022-11-03T13:05:58.608Z,25.80
2022-11-03T13:10:43.903Z,14.82
2022-11-03T13:15:28.872Z,20.08
2022-11-03T13:20:17.500Z,17.40
2022-11-03T13:25:02.467Z,17.13
2022-11-03T13:29:47.759Z,12.30
2022-11-03T13:34:32.759Z,10.68
2022-11-03T13:39:21.507Z,10.18
2022-11-03T13:44:06.650Z,11.45
2022-11-03T13:49:43.829Z,9.27
2022-11-03T14:09:17.933Z,8.43
2022-11-03T14:14:05.619Z,8.38
2022-11-03T14:18:50.909Z,9.60
2022-11-03T14:23:35.880Z,11.05
2022-11-03T14:28:26.034Z,10.57
2022-11-03T14:33:14.182Z,11.13
2022-11-03T14:37:59.680Z,10.55
2022-11-03T14:42:44.699Z,24.25
2022-11-03T14:47:31.615Z,12.65
2022-11-03T14:52:20.009Z,9.02
2022-11-03T14:57:05.900Z,15.23
2022-11-03T15:01:52.493Z,24.65
2022-11-03T15:06:37.898Z,12.75
2022-11-03T15:11:25.499Z,16.23
2022-11-03T15:16:10.937Z,13.60
2022-11-03T15:20:56.136Z,17.33
2022-11-03T15:25:41.609Z,28.77
2022-11-03T15:30:29.875Z,22.88
2022-11-03T15:35:15.718Z,26.27
2022-11-03T15:40:00.733Z,24.85
2022-11-03T15:44:45.988Z,31.27
2022-11-03T15:49:33.636Z,26.58
2022-11-03T15:54:18.899Z,26.88
2022-11-03T15:59:03.864Z,21.92
2022-11-03T16:03:49.135Z,22.33
2022-11-03T16:08:36.768Z,22.15
2022-11-03T16:13:22.054Z,26.23
2022-11-03T16:18:07.542Z,26.42
2022-11-03T16:28:01.021Z,25.08
2022-11-03T16:32:46.067Z,22.13
2022-11-03T16:37:31.446Z,16.80
2022-11-03T16:42:16.442Z,18.55
2022-11-03T16:47:04.731Z,21.88
2022-11-03T16:51:49.799Z,19.80
2022-11-03T16:56:35.148Z,22.77
2022-11-03T17:01:20.242Z,28.08
2022-11-03T17:06:08.520Z,24.45
2022-11-03T17:10:53.577Z,21.70
2022-11-03T17:15:39.393Z,20.70
2022-11-03T17:20:25.001Z,14.40
2022-11-03T17:25:14.956Z,21.05
2022-11-03T17:30:02.945Z,16.75
2022-11-03T17:34:48.415Z,22.95
2022-11-03T17:39:38.053Z,18.02
2022-11-03T17:44:26.368Z,18.40
2022-11-03T17:49:11.434Z,22.73
2022-11-03T17:53:56.834Z,21.58
2022-11-03T17:58:46.620Z,20.10
2022-11-03T18:03:35.501Z,20.55
2022-11-03T18:08:21.280Z,24.35
2022-11-03T18:13:20.338Z,22.70
2022-11-03T18:18:11.128Z,20.98
2022-11-03T18:23:08.827Z,20.17
2022-11-03T18:27:54.283Z,19.85
2022-11-03T18:32:40.743Z,25.08
2022-11-03T18:37:25.761Z,21.35
2022-11-03T18:42:17.799Z,18.92
2022-11-03T18:47:02.809Z,18.83
2022-11-03T18:51:51.460Z,25.40
2022-11-03T18:56:38.274Z,26.40
2022-11-03T19:01:28.342Z,26.25
2022-11-03T19:06:13.648Z,9.43
2022-11-03T19:11:03.821Z,17.20
2022-11-03T19:15:49.444Z,16.40
2022-11-03T19:20:37.414Z,21.52
2022-11-03T19:25:22.704Z,19.02
2022-11-03T19:30:09.287Z,28.70
2022-11-03T19:35:00.225Z,26.17
2022-11-03T19:39:48.575Z,32.23
2022-11-03T19:49:38.884Z,25.83
2022-11-03T19:54:26.098Z,28.13
2022-11-03T19:59:16.049Z,19.40
2022-11-03T20:04:01.193Z,20.67
2022-11-03T20:08:47.698Z,27.25
2022-11-03T20:13:37.669Z,35.83
2022-11-03T20:18:25.856Z,23.02
2022-11-03T20:23:19.996Z,32.88
2022-11-03T20:28:16.958Z,27.63
2022-11-03T20:33:01.987Z,26.70
2022-11-03T20:37:53.052Z,23.75
2022-11-03T20:42:38.092Z,19.42
2022-11-03T20:47:23.427Z,25.85
2022-11-03T20:52:09.174Z,23.52
2022-11-03T20:56:57.058Z,20.48
2022-11-03T21:01:43.438Z,25.70
2022-11-03T21:06:29.358Z,23.35
2022-11-03T21:11:28.423Z,21.85
2022-11-03T21:16:43.550Z,24.70
2022-11-03T21:21:28.835Z,28.00
2022-11-03T21:26:15.396Z,29.63
2022-11-03T21:31:00.839Z,24.77
2022-11-03T21:35:50.644Z,29.70
2022-11-03T21:40:36.157Z,19.10
2022-11-03T21:45:21.658Z,23.23
2022-11-03T21:50:07.572Z,19.13
2022-11-03T21:54:55.197Z,22.52
2022-11-03T21:59:40.844Z,23.10
2022-11-03T22:04:25.948Z,28.42
2022-11-03T22:09:11.245Z,25.33
2022-11-03T22:14:00.420Z,22.83
2022-11-03T22:18:45.711Z,22.75
2022-11-03T22:23:43.072Z,30.20
2022-11-03T22:28:28.431Z,27.98
2022-11-03T22:33:16.152Z,37.10
2022-11-03T22:38:05.731Z,22.17
2022-11-03T22:43:03.205Z,25.10
2022-11-03T22:47:48.512Z,28.85
2022-11-03T22:52:36.140Z,29.55
2022-11-03T22:57:21.468Z,23.92
2022-11-03T23:02:06.762Z,30.13
2022-11-03T23:06:52.165Z,27.00
2022-11-03T23:11:39.920Z,23.05
2022-11-03T23:16:28.023Z,25.25
2022-11-03T23:21:11.180Z,28.13
2022-11-03T23:25:57.104Z,30.95
2022-11-03T23:30:46.035Z,38.40
2022-11-03T23:35:31.335Z,36.70
2022-11-03T23:40:20.480Z,28.30
2022-11-03T23:45:19.979Z,28.35
2022-11-03T23:50:08.490Z,33.15
2022-11-03T23:54:53.852Z,31.60
2022-11-03T23:59:38.961Z,33.33
